Kansas City, Missouri
Traffic Map
Current Weather Conditions
Kansas City, Missouri
Clear
Clear
18°
Feels Like: 18°
Wind Chill: 18° Ceiling: Unl
Heat Index: 18° Visibility: 10mi
Dew Point: Wind: 0mph
Humidity: 34% Direction: ° ()
Pressure: 29.94in Gusts: 0mph
Raw Report DataKMKC 310554Z 00000KT 10SM CLR 18/02 A2994 RMK AO2 SLP133 T01780017 10217 20156 402390028 55005
Traffic Incident Summary
Active as of:
Severity:
Category:
InformationThere was an issue retrieving the traffic information for this location. Please try a different location or try again shortly.
Advertisements
Track Severe Weather on mobile